createdAt,value
2023-02-15T00:04:57.515Z,58.41
2023-02-15T00:10:02.451Z,58.42
2023-02-15T00:15:07.824Z,58.45
2023-02-15T00:20:12.113Z,57.86
2023-02-15T00:25:17.219Z,57.81
2023-02-15T00:30:21.091Z,57.72
2023-02-15T00:35:24.609Z,57.63
2023-02-15T00:40:29.537Z,57.65
2023-02-15T00:45:32.587Z,57.32
2023-02-15T00:50:35.899Z,57.41
2023-02-15T00:55:41.409Z,57.21
2023-02-15T01:00:46.397Z,56.96
2023-02-15T01:05:51.431Z,56.87
2023-02-15T01:10:56.359Z,56.60
2023-02-15T01:16:00.146Z,56.66
2023-02-15T01:21:12.035Z,56.36
2023-02-15T01:26:17.820Z,56.32
2023-02-15T01:31:23.257Z,56.38
2023-02-15T01:36:26.736Z,56.14
2023-02-15T01:41:32.056Z,56.10
2023-02-15T01:46:39.952Z,56.19
2023-02-15T01:51:47.620Z,55.83
2023-02-15T01:56:53.175Z,55.52
2023-02-15T02:02:01.708Z,55.49
2023-02-15T02:07:06.717Z,55.36
2023-02-15T02:12:12.351Z,55.15
2023-02-15T02:17:20.460Z,54.83
2023-02-15T02:23:08.242Z,54.92
2023-02-15T02:28:36.502Z,54.69
2023-02-15T02:33:56.509Z,54.58
2023-02-15T02:39:15.260Z,54.63
2023-02-15T02:44:24.719Z,54.36
2023-02-15T02:49:35.279Z,54.85
2023-02-15T02:54:38.656Z,54.70
2023-02-15T02:59:46.701Z,54.56
2023-02-15T03:04:59.744Z,54.33
2023-02-15T03:10:05.876Z,54.32
2023-02-15T03:15:12.872Z,53.25
2023-02-15T03:20:26.572Z,53.30
2023-02-15T03:25:35.322Z,52.87
2023-02-15T03:30:41.527Z,53.05
2023-02-15T03:35:52.724Z,52.63
2023-02-15T03:41:13.816Z,52.37
2023-02-15T03:46:26.817Z,52.70
2023-02-15T03:51:36.352Z,52.61
2023-02-15T03:56:42.343Z,52.91
2023-02-15T04:02:00.664Z,52.39
2023-02-15T04:07:07.630Z,52.66
2023-02-15T04:12:11.276Z,52.59
2023-02-15T04:17:14.788Z,52.54
2023-02-15T04:22:36.915Z,52.04
2023-02-15T04:27:40.871Z,52.70
2023-02-15T04:32:44.717Z,52.31
2023-02-15T04:37:49.487Z,52.43
2023-02-15T04:42:53.047Z,52.68
2023-02-15T04:47:56.689Z,52.61
2023-02-15T04:53:01.859Z,52.69
2023-02-15T04:58:05.802Z,53.22
2023-02-15T05:03:09.563Z,53.19
2023-02-15T05:08:14.496Z,52.99
2023-02-15T05:13:18.300Z,53.64
2023-02-15T05:18:23.257Z,53.69
2023-02-15T05:23:27.857Z,53.06
2023-02-15T05:28:31.360Z,53.18
2023-02-15T05:33:35.904Z,53.54
2023-02-15T05:38:41.169Z,53.45
2023-02-15T05:43:45.015Z,53.42
2023-02-15T05:48:48.542Z,52.71
2023-02-15T05:53:53.334Z,52.47
2023-02-15T05:58:57.096Z,52.01
2023-02-15T06:04:00.463Z,51.83
2023-02-15T06:09:05.618Z,51.38
2023-02-15T06:14:09.004Z,51.12
2023-02-15T06:19:12.456Z,50.79
2023-02-15T06:24:17.348Z,50.07
2023-02-15T06:29:20.616Z,49.20
2023-02-15T06:34:24.175Z,49.18
2023-02-15T06:39:29.100Z,48.81
2023-02-15T06:44:32.531Z,49.00
2023-02-15T06:49:36.034Z,48.37
2023-02-15T06:54:40.811Z,47.96
2023-02-15T06:59:44.063Z,47.45
2023-02-15T07:04:47.470Z,47.91
2023-02-15T07:09:52.521Z,47.50
2023-02-15T07:15:05.681Z,45.98
2023-02-15T07:20:12.861Z,45.51
2023-02-15T07:25:16.440Z,45.62
2023-02-15T07:30:21.689Z,45.22
2023-02-15T07:35:25.219Z,44.86
2023-02-15T07:40:29.043Z,45.97
2023-02-15T07:45:33.851Z,45.54
2023-02-15T07:50:37.359Z,46.01
2023-02-15T07:55:40.739Z,46.40
2023-02-15T08:01:02.890Z,46.25
2023-02-15T08:06:07.148Z,45.91
2023-02-15T08:11:37.681Z,46.34
2023-02-15T08:16:44.157Z,46.29
2023-02-15T08:21:49.602Z,47.00
2023-02-15T08:26:54.146Z,46.88
2023-02-15T08:32:03.445Z,47.72
2023-02-15T08:37:07.857Z,48.63
2023-02-15T08:42:11.360Z,48.30
2023-02-15T08:47:16.228Z,48.59
2023-02-15T08:52:19.470Z,48.41
2023-02-15T08:57:22.798Z,48.40
2023-02-15T09:02:27.928Z,48.40
2023-02-15T09:07:31.436Z,47.88
2023-02-15T09:12:34.968Z,47.45
2023-02-15T09:17:39.906Z,47.20
2023-02-15T09:22:42.946Z,46.54
2023-02-15T09:27:46.586Z,47.02
2023-02-15T09:32:51.558Z,47.24
2023-02-15T09:37:54.758Z,46.83
2023-02-15T09:43:25.495Z,46.40
2023-02-15T09:48:53.371Z,46.30
2023-02-15T09:54:12.600Z,46.40
2023-02-15T09:59:27.274Z,46.07
2023-02-15T10:04:48.854Z,45.97
2023-02-15T10:10:03.879Z,46.48
2023-02-15T10:15:13.431Z,46.81
2023-02-15T10:20:30.116Z,47.34
2023-02-15T10:25:44.413Z,48.32
2023-02-15T10:30:51.737Z,48.38
2023-02-15T10:36:09.319Z,48.29
2023-02-15T10:41:25.357Z,48.44
2023-02-15T10:46:47.334Z,48.39
2023-02-15T10:52:08.445Z,48.63
2023-02-15T10:57:23.833Z,48.47
2023-02-15T11:02:39.597Z,48.34
2023-02-15T11:07:47.744Z,48.53
2023-02-15T11:12:52.269Z,48.42
2023-02-15T11:18:02.465Z,48.54
2023-02-15T11:23:17.349Z,48.52
2023-02-15T11:28:25.733Z,49.17
2023-02-15T11:33:34.019Z,49.21
2023-02-15T11:38:40.631Z,49.23
2023-02-15T11:43:52.754Z,49.12
2023-02-15T11:48:56.228Z,49.24
2023-02-15T11:54:01.543Z,49.36
2023-02-15T11:59:11.723Z,49.04
2023-02-15T12:04:23.001Z,49.67
2023-02-15T12:09:35.924Z,49.21
2023-02-15T12:14:50.117Z,49.30
2023-02-15T12:19:55.108Z,49.79
2023-02-15T12:25:01.989Z,49.63
2023-02-15T12:30:19.272Z,50.14
2023-02-15T12:35:30.409Z,49.97
2023-02-15T12:40:37.206Z,50.21
2023-02-15T12:45:40.996Z,49.87
2023-02-15T12:50:45.586Z,50.00
2023-02-15T12:55:55.644Z,50.27
2023-02-15T13:01:14.171Z,49.97
2023-02-15T13:06:20.271Z,50.26
2023-02-15T13:11:31.204Z,50.20
2023-02-15T13:16:38.054Z,50.46
2023-02-15T13:21:46.117Z,50.05
2023-02-15T13:26:51.668Z,50.34
2023-02-15T13:31:57.032Z,50.19
2023-02-15T13:37:07.832Z,50.48
2023-02-15T13:42:23.605Z,49.98
2023-02-15T13:47:32.672Z,50.40
2023-02-15T13:52:44.366Z,50.75
2023-02-15T13:58:11.523Z,50.79
2023-02-15T14:03:42.349Z,50.90
2023-02-15T14:09:01.499Z,51.01
2023-02-15T14:14:46.360Z,50.93
2023-02-15T14:19:55.214Z,51.45
2023-02-15T14:25:09.677Z,51.09
2023-02-15T14:30:22.806Z,51.47
2023-02-15T14:35:30.008Z,51.82
2023-02-15T14:40:59.253Z,51.79
2023-02-15T14:46:13.066Z,51.87
2023-02-15T14:51:50.506Z,51.82
2023-02-15T14:57:25.009Z,51.86
2023-02-15T15:02:41.917Z,52.47
2023-02-15T15:07:48.324Z,52.32
2023-02-15T15:12:53.824Z,52.38
2023-02-15T15:18:01.003Z,52.36
2023-02-15T15:23:41.276Z,51.95
2023-02-15T15:28:59.523Z,52.43
2023-02-15T15:34:46.481Z,52.03
2023-02-15T15:40:24.292Z,52.15
2023-02-15T15:46:08.180Z,51.99
2023-02-15T15:51:20.185Z,52.19
2023-02-15T15:56:29.236Z,52.34
2023-02-15T16:01:37.315Z,52.62
2023-02-15T16:06:43.313Z,52.69
2023-02-15T16:11:49.372Z,52.56
2023-02-15T16:16:56.370Z,53.12
2023-02-15T16:22:03.950Z,52.81
2023-02-15T16:27:35.625Z,52.10
2023-02-15T16:32:39.090Z,52.13
2023-02-15T16:37:44.012Z,51.89
2023-02-15T16:42:47.503Z,51.76
2023-02-15T16:47:55.358Z,51.67
2023-02-15T16:53:01.348Z,51.87
2023-02-15T16:58:07.093Z,52.09
2023-02-15T17:03:24.270Z,51.85
2023-02-15T17:08:31.589Z,51.80
2023-02-15T17:13:35.060Z,51.67
2023-02-15T17:18:46.115Z,51.85
2023-02-15T17:23:52.540Z,51.56
2023-02-15T17:28:58.435Z,51.48
2023-02-15T17:34:03.028Z,51.33
2023-02-15T17:39:21.123Z,51.71
2023-02-15T17:44:24.451Z,51.63
2023-02-15T17:49:29.526Z,51.90
2023-02-15T17:54:51.486Z,51.75
2023-02-15T18:00:12.539Z,51.75
2023-02-15T18:05:34.278Z,51.56
2023-02-15T18:10:56.443Z,51.76
2023-02-15T18:16:00.070Z,52.04
2023-02-15T18:21:03.959Z,52.07
2023-02-15T18:26:12.229Z,52.05
2023-02-15T18:31:16.461Z,51.95
2023-02-15T18:36:24.009Z,52.42
2023-02-15T18:41:28.889Z,52.26
2023-02-15T18:46:32.380Z,52.17
2023-02-15T18:51:40.300Z,52.49
2023-02-15T18:56:45.274Z,52.31
2023-02-15T19:07:17.876Z,52.65
2023-02-15T19:12:22.766Z,52.42
2023-02-15T19:17:26.544Z,52.31
2023-02-15T19:22:32.996Z,52.76
2023-02-15T19:27:38.156Z,53.14
2023-02-15T19:32:41.556Z,52.90
2023-02-15T19:37:47.956Z,52.83
2023-02-15T19:42:53.570Z,53.16
2023-02-15T19:47:57.230Z,53.02
2023-02-15T19:53:00.863Z,53.27
2023-02-15T19:58:05.929Z,54.00
2023-02-15T20:03:09.422Z,53.67
2023-02-15T20:08:18.643Z,53.83
2023-02-15T20:13:23.510Z,53.80
2023-02-15T20:18:26.692Z,53.86
2023-02-15T20:23:32.701Z,54.22
2023-02-15T20:28:37.612Z,54.58
2023-02-15T20:33:41.114Z,54.32
2023-02-15T20:38:45.387Z,54.14
2023-02-15T20:43:50.346Z,54.44
2023-02-15T20:48:53.721Z,54.94
2023-02-15T20:53:57.218Z,54.65
2023-02-15T20:59:02.011Z,55.08
2023-02-15T21:04:08.539Z,55.08
2023-02-15T21:09:14.739Z,55.34
2023-02-15T21:14:21.588Z,55.12
2023-02-15T21:19:26.438Z,55.31
2023-02-15T21:24:30.332Z,55.38
2023-02-15T21:29:36.020Z,55.42
2023-02-15T21:34:40.114Z,55.28
2023-02-15T21:39:43.513Z,54.92
2023-02-15T21:45:14.445Z,55.09
2023-02-15T21:50:36.412Z,54.29
2023-02-15T21:55:40.024Z,54.29
2023-02-15T22:00:45.077Z,54.03
2023-02-15T22:05:48.459Z,54.15
2023-02-15T22:10:52.047Z,54.16
2023-02-15T22:15:57.466Z,53.98
2023-02-15T22:21:01.203Z,54.38
2023-02-15T22:26:08.095Z,54.28
2023-02-15T22:31:16.121Z,54.33
2023-02-15T22:36:25.326Z,54.56
2023-02-15T22:41:31.581Z,54.58
2023-02-15T22:46:38.444Z,54.54
2023-02-15T22:51:42.845Z,54.56
2023-02-15T22:56:48.934Z,54.47
2023-02-15T23:01:54.490Z,54.92
2023-02-15T23:07:00.766Z,54.67
2023-02-15T23:12:04.335Z,54.70
2023-02-15T23:17:10.326Z,54.63
2023-02-15T23:22:16.091Z,54.88
2023-02-15T23:27:37.726Z,54.86
2023-02-15T23:32:42.684Z,55.10
2023-02-15T23:37:46.317Z,55.00
2023-02-15T23:42:49.757Z,55.58
2023-02-15T23:48:12.089Z,55.37
2023-02-15T23:53:15.594Z,56.06
2023-02-15T23:58:21.626Z,55.68
